sensor_id;sensor_type;location;lat;lon;timestamp;pressure;altitude;pressure_sealevel;temperature;humidity
18396;BME280;76377;45.194;5.734;2024-03-06T00:00:12;99361.38;;;7.66;89.30
18396;BME280;76377;45.194;5.734;2024-03-06T00:02:39;99364.00;;;7.62;89.29
18396;BME280;76377;45.194;5.734;2024-03-06T00:05:07;99367.56;;;7.63;90.21
18396;BME280;76377;45.194;5.734;2024-03-06T00:07:34;99366.88;;;7.66;89.02
18396;BME280;76377;45.194;5.734;2024-03-06T00:10:02;99360.69;;;7.69;87.56
18396;BME280;76377;45.194;5.734;2024-03-06T00:12:32;99367.97;;;7.52;88.35
18396;BME280;76377;45.194;5.734;2024-03-06T00:14:59;99373.47;;;7.52;86.90
18396;BME280;76377;45.194;5.734;2024-03-06T00:17:26;99381.44;;;7.24;87.58
18396;BME280;76377;45.194;5.734;2024-03-06T00:19:53;99373.22;;;7.45;86.37
18396;BME280;76377;45.194;5.734;2024-03-06T00:22:20;99386.69;;;7.38;86.71
18396;BME280;76377;45.194;5.734;2024-03-06T00:24:48;99381.66;;;7.40;86.61
18396;BME280;76377;45.194;5.734;2024-03-06T00:27:15;99387.38;;;7.35;88.49
18396;BME280;76377;45.194;5.734;2024-03-06T00:29:43;99388.03;;;7.32;88.84
18396;BME280;76377;45.194;5.734;2024-03-06T00:32:10;99388.59;;;7.17;90.28
18396;BME280;76377;45.194;5.734;2024-03-06T00:34:37;99391.28;;;7.05;88.99
18396;BME280;76377;45.194;5.734;2024-03-06T00:37:05;99394.88;;;6.96;90.16
18396;BME280;76377;45.194;5.734;2024-03-06T00:39:32;99402.59;;;7.03;88.88
18396;BME280;76377;45.194;5.734;2024-03-06T00:41:59;99404.66;;;6.85;88.78
18396;BME280;76377;45.194;5.734;2024-03-06T00:44:26;99399.09;;;6.94;88.02
18396;BME280;76377;45.194;5.734;2024-03-06T00:46:54;99402.47;;;7.00;88.14
18396;BME280;76377;45.194;5.734;2024-03-06T00:49:21;99404.53;;;7.03;88.71
18396;BME280;76377;45.194;5.734;2024-03-06T00:51:48;99400.81;;;7.28;86.21
18396;BME280;76377;45.194;5.734;2024-03-06T00:54:15;99408.47;;;7.22;86.55
18396;BME280;76377;45.194;5.734;2024-03-06T00:56:43;99408.44;;;7.02;87.41
18396;BME280;76377;45.194;5.734;2024-03-06T00:59:10;99402.13;;;7.01;88.43
18396;BME280;76377;45.194;5.734;2024-03-06T01:01:37;99394.97;;;6.79;91.61
18396;BME280;76377;45.194;5.734;2024-03-06T01:04:05;99410.50;;;6.75;95.08
18396;BME280;76377;45.194;5.734;2024-03-06T01:06:33;99408.72;;;6.79;94.85
18396;BME280;76377;45.194;5.734;2024-03-06T01:09:00;99407.88;;;6.87;94.95
18396;BME280;76377;45.194;5.734;2024-03-06T01:11:27;99399.81;;;6.82;94.29
18396;BME280;76377;45.194;5.734;2024-03-06T01:13:54;99407.59;;;6.80;94.57
18396;BME280;76377;45.194;5.734;2024-03-06T01:16:21;99406.91;;;6.83;94.86
18396;BME280;76377;45.194;5.734;2024-03-06T01:18:48;99410.94;;;6.86;92.80
18396;BME280;76377;45.194;5.734;2024-03-06T01:21:17;99408.81;;;6.91;91.25
18396;BME280;76377;45.194;5.734;2024-03-06T01:23:44;99413.66;;;6.94;91.88
18396;BME280;76377;45.194;5.734;2024-03-06T01:26:11;99418.72;;;6.84;93.29
18396;BME280;76377;45.194;5.734;2024-03-06T01:28:38;99407.72;;;6.84;94.23
18396;BME280;76377;45.194;5.734;2024-03-06T01:31:05;99413.06;;;6.80;94.64
18396;BME280;76377;45.194;5.734;2024-03-06T01:33:32;99410.13;;;6.85;95.02
18396;BME280;76377;45.194;5.734;2024-03-06T01:35:59;99406.91;;;6.83;95.97
18396;BME280;76377;45.194;5.734;2024-03-06T01:38:27;99403.03;;;6.84;96.09
18396;BME280;76377;45.194;5.734;2024-03-06T01:40:55;99402.22;;;6.84;96.37
18396;BME280;76377;45.194;5.734;2024-03-06T01:43:23;99403.31;;;6.91;96.90
18396;BME280;76377;45.194;5.734;2024-03-06T01:45:51;99407.19;;;6.90;96.83
18396;BME280;76377;45.194;5.734;2024-03-06T01:48:20;99409.16;;;6.90;97.03
18396;BME280;76377;45.194;5.734;2024-03-06T01:50:48;99403.97;;;6.88;96.91
18396;BME280;76377;45.194;5.734;2024-03-06T01:53:17;99406.53;;;6.93;96.86
18396;BME280;76377;45.194;5.734;2024-03-06T01:55:47;99407.88;;;6.87;97.23
18396;BME280;76377;45.194;5.734;2024-03-06T01:58:14;99407.88;;;6.87;97.05
18396;BME280;76377;45.194;5.734;2024-03-06T02:00:42;99410.81;;;6.82;97.68
18396;BME280;76377;45.194;5.734;2024-03-06T02:03:09;99414.50;;;6.86;96.28
18396;BME280;76377;45.194;5.734;2024-03-06T02:05:37;99418.84;;;6.87;95.59
18396;BME280;76377;45.194;5.734;2024-03-06T02:08:04;99404.03;;;6.80;97.83
18396;BME280;76377;45.194;5.734;2024-03-06T02:10:33;99401.63;;;6.78;98.01
18396;BME280;76377;45.194;5.734;2024-03-06T02:13:03;99408.72;;;6.79;97.82
18396;BME280;76377;45.194;5.734;2024-03-06T02:15:30;99416.66;;;6.72;97.88
18396;BME280;76377;45.194;5.734;2024-03-06T02:17:58;99411.97;;;6.73;98.44
18396;BME280;76377;45.194;5.734;2024-03-06T02:20:27;99417.31;;;6.69;98.08
18396;BME280;76377;45.194;5.734;2024-03-06T02:22:54;99410.84;;;6.65;98.25
18396;BME280;76377;45.194;5.734;2024-03-06T02:25:21;99414.38;;;6.74;97.99
18396;BME280;76377;45.194;5.734;2024-03-06T02:27:48;99409.84;;;6.78;98.24
18396;BME280;76377;45.194;5.734;2024-03-06T02:30:19;99411.47;;;6.79;99.85
18396;BME280;76377;45.194;5.734;2024-03-06T02:32:47;99408.25;;;6.77;99.49
18396;BME280;76377;45.194;5.734;2024-03-06T02:35:14;99411.16;;;6.72;98.96
18396;BME280;76377;45.194;5.734;2024-03-06T02:37:42;99403.47;;;6.57;100.00
18396;BME280;76377;45.194;5.734;2024-03-06T02:40:10;99410.53;;;6.67;99.77
18396;BME280;76377;45.194;5.734;2024-03-06T02:42:38;99415.69;;;6.68;99.67
18396;BME280;76377;45.194;5.734;2024-03-06T02:45:06;99411.16;;;6.72;99.83
18396;BME280;76377;45.194;5.734;2024-03-06T02:47:34;99414.38;;;6.74;98.87
18396;BME280;76377;45.194;5.734;2024-03-06T02:50:01;99415.69;;;6.68;98.39
18396;BME280;76377;45.194;5.734;2024-03-06T02:52:28;99415.78;;;6.51;100.00
18396;BME280;76377;45.194;5.734;2024-03-06T02:54:57;99418.34;;;6.56;99.46
18396;BME280;76377;45.194;5.734;2024-03-06T02:57:26;99422.22;;;6.55;99.42
18396;BME280;76377;45.194;5.734;2024-03-06T02:59:55;99435.75;;;6.60;97.90
18396;BME280;76377;45.194;5.734;2024-03-06T03:02:22;99428.19;;;6.57;97.95
18396;BME280;76377;45.194;5.734;2024-03-06T03:04:49;99434.81;;;6.56;98.36
18396;BME280;76377;45.194;5.734;2024-03-06T03:07:16;99437.75;;;6.51;99.12
18396;BME280;76377;45.194;5.734;2024-03-06T03:09:43;99435.69;;;6.39;100.00
18396;BME280;76377;45.194;5.734;2024-03-06T03:12:12;99447.28;;;6.45;100.00
18396;BME280;76377;45.194;5.734;2024-03-06T03:14:40;99439.88;;;6.37;100.00
18396;BME280;76377;45.194;5.734;2024-03-06T03:17:07;99439.34;;;6.52;100.00
18396;BME280;76377;45.194;5.734;2024-03-06T03:19:34;99443.59;;;6.41;100.00
18396;BME280;76377;45.194;5.734;2024-03-06T03:22:01;99430.94;;;6.57;99.62
18396;BME280;76377;45.194;5.734;2024-03-06T03:24:30;99437.75;;;6.51;100.00
18396;BME280;76377;45.194;5.734;2024-03-06T03:26:57;99431.91;;;6.52;100.00
18396;BME280;76377;45.194;5.734;2024-03-06T03:29:25;99427.84;;;6.58;98.91
18396;BME280;76377;45.194;5.734;2024-03-06T03:31:52;99433.38;;;6.50;100.00
18396;BME280;76377;45.194;5.734;2024-03-06T03:34:19;99426.75;;;6.51;100.00
18396;BME280;76377;45.194;5.734;2024-03-06T03:36:47;99434.50;;;6.49;98.15
18396;BME280;76377;45.194;5.734;2024-03-06T03:39:14;99443.72;;;6.53;98.84
18396;BME280;76377;45.194;5.734;2024-03-06T03:41:45;99447.59;;;6.52;96.87
18396;BME280;76377;45.194;5.734;2024-03-06T03:44:12;99437.09;;;6.54;95.64
18396;BME280;76377;45.194;5.734;2024-03-06T03:46:41;99436.97;;;6.42;96.53
18396;BME280;76377;45.194;5.734;2024-03-06T03:49:09;99433.41;;;6.41;97.47
18396;BME280;76377;45.194;5.734;2024-03-06T03:51:36;99439.56;;;6.38;97.32
18396;BME280;76377;45.194;5.734;2024-03-06T03:54:04;99433.63;;;6.27;97.79
18396;BME280;76377;45.194;5.734;2024-03-06T03:56:31;99437.16;;;6.37;99.33
18396;BME280;76377;45.194;5.734;2024-03-06T03:58:59;99436.19;;;6.15;99.81
18396;BME280;76377;45.194;5.734;2024-03-06T04:01:26;99441.72;;;5.98;100.00
18396;BME280;76377;45.194;5.734;2024-03-06T04:03:54;99446.41;;;5.97;100.00
18396;BME280;76377;45.194;5.734;2024-03-06T04:06:21;99447.34;;;6.10;100.00
18396;BME280;76377;45.194;5.734;2024-03-06T04:08:49;99445.41;;;6.19;100.00
18396;BME280;76377;45.194;5.734;2024-03-06T04:11:16;99451.53;;;6.33;100.00
18396;BME280;76377;45.194;5.734;2024-03-06T04:13:43;99451.69;;;6.28;100.00
18396;BME280;76377;45.194;5.734;2024-03-06T04:16:16;99450.41;;;6.35;100.00
18396;BME280;76377;45.194;5.734;2024-03-06T04:18:44;99445.84;;;6.39;100.00
18396;BME280;76377;45.194;5.734;2024-03-06T04:21:13;99441.31;;;6.43;100.00
18396;BME280;76377;45.194;5.734;2024-03-06T04:23:40;99446.00;;;6.42;100.00
18396;BME280;76377;45.194;5.734;2024-03-06T04:26:08;99447.28;;;6.45;100.00
18396;BME280;76377;45.194;5.734;2024-03-06T04:28:35;99452.59;;;6.50;100.00
18396;BME280;76377;45.194;5.734;2024-03-06T04:31:02;99452.47;;;6.46;100.00
18396;BME280;76377;45.194;5.734;2024-03-06T04:33:29;99461.16;;;6.57;100.00
18396;BME280;76377;45.194;5.734;2024-03-06T04:35:56;99461.00;;;6.53;99.32
18396;BME280;76377;45.194;5.734;2024-03-06T04:38:25;99455.47;;;6.62;100.00
18396;BME280;76377;45.194;5.734;2024-03-06T04:40:52;99456.78;;;6.56;100.00
18396;BME280;76377;45.194;5.734;2024-03-06T04:43:19;99451.66;;;6.46;98.42
18396;BME280;76377;45.194;5.734;2024-03-06T04:45:46;99460.72;;;6.38;99.00
18396;BME280;76377;45.194;5.734;2024-03-06T04:48:13;99462.13;;;6.52;97.07
18396;BME280;76377;45.194;5.734;2024-03-06T04:50:40;99470.25;;;6.40;100.00
18396;BME280;76377;45.194;5.734;2024-03-06T04:53:08;99464.59;;;6.37;100.00
18396;BME280;76377;45.194;5.734;2024-03-06T04:55:37;99469.44;;;6.40;100.00
18396;BME280;76377;45.194;5.734;2024-03-06T04:58:05;99461.84;;;6.45;100.00
18396;BME280;76377;45.194;5.734;2024-03-06T05:00:32;99465.22;;;6.51;100.00
18396;BME280;76377;45.194;5.734;2024-03-06T05:02:59;99473.75;;;6.58;100.00
18396;BME280;76377;45.194;5.734;2024-03-06T05:05:26;99474.22;;;6.60;100.00
18396;BME280;76377;45.194;5.734;2024-03-06T05:07:53;99473.75;;;6.58;100.00
18396;BME280;76377;45.194;5.734;2024-03-06T05:10:20;99471.00;;;6.58;100.00
18396;BME280;76377;45.194;5.734;2024-03-06T05:12:49;99475.34;;;6.59;100.00
18396;BME280;76377;45.194;5.734;2024-03-06T05:15:16;99472.91;;;6.66;100.00
18396;BME280;76377;45.194;5.734;2024-03-06T05:17:45;99481.81;;;6.63;100.00
18396;BME280;76377;45.194;5.734;2024-03-06T05:20:13;99476.97;;;6.60;100.00
18396;BME280;76377;45.194;5.734;2024-03-06T05:22:40;99483.16;;;6.48;100.00
18396;BME280;76377;45.194;5.734;2024-03-06T05:25:07;99474.88;;;6.57;100.00
18396;BME280;76377;45.194;5.734;2024-03-06T05:27:34;99476.84;;;6.48;100.00
18396;BME280;76377;45.194;5.734;2024-03-06T05:30:03;99475.94;;;6.26;100.00
18396;BME280;76377;45.194;5.734;2024-03-06T05:32:31;99486.56;;;6.37;100.00
18396;BME280;76377;45.194;5.734;2024-03-06T05:34:58;99484.47;;;6.42;100.00
18396;BME280;76377;45.194;5.734;2024-03-06T05:37:25;99493.97;;;6.45;100.00
18396;BME280;76377;45.194;5.734;2024-03-06T05:39:54;99488.16;;;6.46;100.00
18396;BME280;76377;45.194;5.734;2024-03-06T05:42:21;99492.38;;;6.44;100.00
18396;BME280;76377;45.194;5.734;2024-03-06T05:44:48;99495.28;;;6.39;100.00
18396;BME280;76377;45.194;5.734;2024-03-06T05:47:17;99495.94;;;6.18;100.00
18396;BME280;76377;45.194;5.734;2024-03-06T05:49:45;99495.28;;;6.21;100.00
18396;BME280;76377;45.194;5.734;2024-03-06T05:52:13;99494.16;;;6.22;100.00
18396;BME280;76377;45.194;5.734;2024-03-06T05:54:40;99498.22;;;6.16;100.00
18396;BME280;76377;45.194;5.734;2024-03-06T05:57:07;99500.16;;;6.07;100.00
18396;BME280;76377;45.194;5.734;2024-03-06T05:59:34;99514.03;;;6.02;100.00
18396;BME280;76377;45.194;5.734;2024-03-06T06:02:03;99502.06;;;6.15;100.00
18396;BME280;76377;45.194;5.734;2024-03-06T06:04:32;99504.34;;;6.22;100.00
18396;BME280;76377;45.194;5.734;2024-03-06T06:06:59;99513.06;;;5.98;100.00
18396;BME280;76377;45.194;5.734;2024-03-06T06:09:26;99516.63;;;6.07;100.00
18396;BME280;76377;45.194;5.734;2024-03-06T06:11:53;99514.03;;;6.19;100.00
18396;BME280;76377;45.194;5.734;2024-03-06T06:14:20;99521.00;;;6.25;100.00
18396;BME280;76377;45.194;5.734;2024-03-06T06:16:47;99516.94;;;6.23;100.00
18396;BME280;76377;45.194;5.734;2024-03-06T06:19:14;99521.94;;;6.21;100.00
18396;BME280;76377;45.194;5.734;2024-03-06T06:21:43;99525.16;;;6.23;100.00
18396;BME280;76377;45.194;5.734;2024-03-06T06:24:13;99521.47;;;6.27;100.00
18396;BME280;76377;45.194;5.734;2024-03-06T06:26:40;99531.31;;;6.11;100.00
18396;BME280;76377;45.194;5.734;2024-03-06T06:29:07;99524.06;;;6.32;100.00
18396;BME280;76377;45.194;5.734;2024-03-06T06:31:34;99532.78;;;6.35;100.00
18396;BME280;76377;45.194;5.734;2024-03-06T06:34:02;99533.41;;;6.31;100.00
18396;BME280;76377;45.194;5.734;2024-03-06T06:36:29;99541.50;;;6.28;100.00
18396;BME280;76377;45.194;5.734;2024-03-06T06:38:57;99529.22;;;6.25;100.00
18396;BME280;76377;45.194;5.734;2024-03-06T06:41:25;99539.56;;;6.28;100.00
18396;BME280;76377;45.194;5.734;2024-03-06T06:43:52;99535.03;;;6.32;100.00
18396;BME280;76377;45.194;5.734;2024-03-06T06:46:19;99533.25;;;6.37;100.00
18396;BME280;76377;45.194;5.734;2024-03-06T06:48:46;99532.13;;;6.38;100.00
18396;BME280;76377;45.194;5.734;2024-03-06T06:51:14;99540.66;;;6.45;100.00
18396;BME280;76377;45.194;5.734;2024-03-06T06:53:42;99539.53;;;6.46;100.00
18396;BME280;76377;45.194;5.734;2024-03-06T06:56:10;99540.66;;;6.45;100.00
18396;BME280;76377;45.194;5.734;2024-03-06T06:58:38;99536.31;;;6.44;100.00
18396;BME280;76377;45.194;5.734;2024-03-06T07:01:08;99535.97;;;6.45;100.00
18396;BME280;76377;45.194;5.734;2024-03-06T07:03:35;99548.25;;;6.48;100.00
18396;BME280;76377;45.194;5.734;2024-03-06T07:06:03;99549.53;;;6.50;100.00
18396;BME280;76377;45.194;5.734;2024-03-06T07:08:30;99553.75;;;6.48;100.00
18396;BME280;76377;45.194;5.734;2024-03-06T07:10:57;99553.44;;;6.49;100.00
18396;BME280;76377;45.194;5.734;2024-03-06T07:13:25;99555.69;;;6.56;100.00
18396;BME280;76377;45.194;5.734;2024-03-06T07:15:53;99550.19;;;6.56;100.00
18396;BME280;76377;45.194;5.734;2024-03-06T07:18:21;99561.97;;;6.65;100.00
18396;BME280;76377;45.194;5.734;2024-03-06T07:20:49;99555.81;;;6.68;100.00
18396;BME280;76377;45.194;5.734;2024-03-06T07:23:16;99551.59;;;6.79;100.00
18396;BME280;76377;45.194;5.734;2024-03-06T07:25:43;99550.63;;;6.84;100.00
18396;BME280;76377;45.194;5.734;2024-03-06T07:28:10;99558.25;;;6.78;98.54
18396;BME280;76377;45.194;5.734;2024-03-06T07:30:39;99558.69;;;6.89;96.80
18396;BME280;76377;45.194;5.734;2024-03-06T07:33:06;99557.22;;;6.91;97.25
18396;BME280;76377;45.194;5.734;2024-03-06T07:35:34;99565.00;;;6.89;98.41
18396;BME280;76377;45.194;5.734;2024-03-06T07:38:02;99563.34;;;6.97;98.60
18396;BME280;76377;45.194;5.734;2024-03-06T07:40:30;99566.72;;;7.03;98.72
18396;BME280;76377;45.194;5.734;2024-03-06T07:42:57;99562.84;;;7.04;98.21
18396;BME280;76377;45.194;5.734;2024-03-06T07:45:25;99562.00;;;7.12;97.91
18396;BME280;76377;45.194;5.734;2024-03-06T07:47:54;99575.41;;;7.13;97.65
18396;BME280;76377;45.194;5.734;2024-03-06T07:50:21;99564.28;;;7.10;97.33
18396;BME280;76377;45.194;5.734;2024-03-06T07:52:48;99568.97;;;7.09;97.40
18396;BME280;76377;45.194;5.734;2024-03-06T07:55:15;99562.66;;;7.09;96.50
18396;BME280;76377;45.194;5.734;2024-03-06T07:57:44;99559.88;;;7.17;95.68
18396;BME280;76377;45.194;5.734;2024-03-06T08:00:12;99564.72;;;7.20;95.82
18396;BME280;76377;45.194;5.734;2024-03-06T08:02:41;99570.22;;;7.29;94.85
18396;BME280;76377;45.194;5.734;2024-03-06T08:05:11;99561.88;;;7.46;93.85
18396;BME280;76377;45.194;5.734;2024-03-06T08:07:39;99563.09;;;7.57;90.54
18396;BME280;76377;45.194;5.734;2024-03-06T08:10:08;99558.53;;;7.62;90.84
18396;BME280;76377;45.194;5.734;2024-03-06T08:12:39;99560.34;;;7.57;90.94
18396;BME280;76377;45.194;5.734;2024-03-06T08:15:08;99564.38;;;7.60;92.48
18396;BME280;76377;45.194;5.734;2024-03-06T08:17:38;99556.53;;;7.71;91.61
18396;BME280;76377;45.194;5.734;2024-03-06T08:20:08;99555.59;;;7.67;91.61
18396;BME280;76377;45.194;5.734;2024-03-06T08:22:38;99557.19;;;7.47;93.11
18396;BME280;76377;45.194;5.734;2024-03-06T08:25:06;99560.91;;;7.42;93.44
18396;BME280;76377;45.194;5.734;2024-03-06T08:27:35;99567.75;;;7.66;91.90
18396;BME280;76377;45.194;5.734;2024-03-06T08:30:03;99563.47;;;7.77;90.59
18396;BME280;76377;45.194;5.734;2024-03-06T08:32:31;99567.66;;;7.83;90.37
18396;BME280;76377;45.194;5.734;2024-03-06T08:34:59;99555.69;;;7.79;90.31
18396;BME280;76377;45.194;5.734;2024-03-06T08:37:26;99562.50;;;7.81;90.09
18396;BME280;76377;45.194;5.734;2024-03-06T08:39:54;99559.00;;;7.93;88.81
18396;BME280;76377;45.194;5.734;2024-03-06T08:42:21;99559.53;;;8.07;89.12
18396;BME280;76377;45.194;5.734;2024-03-06T08:44:48;99563.56;;;8.31;88.21
18396;BME280;76377;45.194;5.734;2024-03-06T08:47:16;99557.97;;;8.48;85.71
18396;BME280;76377;45.194;5.734;2024-03-06T08:49:43;99563.56;;;8.31;86.06
18396;BME280;76377;45.194;5.734;2024-03-06T08:52:10;99561.84;;;8.47;86.04
18396;BME280;76377;45.194;5.734;2024-03-06T08:54:37;99566.69;;;8.50;86.17
18396;BME280;76377;45.194;5.734;2024-03-06T08:57:08;99565.19;;;8.32;86.53
18396;BME280;76377;45.194;5.734;2024-03-06T08:59:35;99569.06;;;8.31;84.23
18396;BME280;76377;45.194;5.734;2024-03-06T09:02:12;99565.75;;;8.46;83.39
18396;BME280;76377;45.194;5.734;2024-03-06T09:04:40;99565.16;;;8.73;81.05
18396;BME280;76377;45.194;5.734;2024-03-06T09:07:08;99570.28;;;8.63;82.44
18396;BME280;76377;45.194;5.734;2024-03-06T09:09:36;99566.84;;;8.99;80.83
18396;BME280;76377;45.194;5.734;2024-03-06T09:12:04;99574.69;;;9.09;79.60
18396;BME280;76377;45.194;5.734;2024-03-06T09:14:33;99575.06;;;9.32;77.01
18396;BME280;76377;45.194;5.734;2024-03-06T09:17:01;99572.22;;;9.65;75.84
18396;BME280;76377;45.194;5.734;2024-03-06T09:19:28;99577.56;;;9.12;77.86
18396;BME280;76377;45.194;5.734;2024-03-06T09:21:55;99581.13;;;9.13;79.13
18396;BME280;76377;45.194;5.734;2024-03-06T09:24:23;99580.22;;;9.09;76.96
18396;BME280;76377;45.194;5.734;2024-03-06T09:26:52;99573.03;;;9.41;76.43
18396;BME280;76377;45.194;5.734;2024-03-06T09:29:19;99574.38;;;9.35;76.68
18396;BME280;76377;45.194;5.734;2024-03-06T09:31:48;99580.16;;;9.66;75.88
18396;BME280;76377;45.194;5.734;2024-03-06T09:34:15;99580.84;;;9.51;74.66
18396;BME280;76377;45.194;5.734;2024-03-06T09:36:46;99577.47;;;10.06;73.84
18396;BME280;76377;45.194;5.734;2024-03-06T09:39:14;99578.97;;;10.56;71.42
18396;BME280;76377;45.194;5.734;2024-03-06T09:41:42;99572.97;;;10.82;67.90
18396;BME280;76377;45.194;5.734;2024-03-06T09:44:10;99572.06;;;11.37;67.29
18396;BME280;76377;45.194;5.734;2024-03-06T09:46:37;99569.66;;;11.83;63.49
18396;BME280;76377;45.194;5.734;2024-03-06T09:49:07;99560.16;;;12.54;59.67
18396;BME280;76377;45.194;5.734;2024-03-06T09:51:36;99560.88;;;12.51;61.53
18396;BME280;76377;45.194;5.734;2024-03-06T09:54:07;99563.53;;;13.74;56.90
18396;BME280;76377;45.194;5.734;2024-03-06T09:56:35;99555.78;;;14.13;54.33
18396;BME280;76377;45.194;5.734;2024-03-06T09:59:02;99557.13;;;13.70;55.25
18396;BME280;76377;45.194;5.734;2024-03-06T10:01:31;99560.41;;;13.53;54.39
18396;BME280;76377;45.194;5.734;2024-03-06T10:03:58;99566.97;;;13.18;55.59
18396;BME280;76377;45.194;5.734;2024-03-06T10:06:27;99561.97;;;12.66;56.87
18396;BME280;76377;45.194;5.734;2024-03-06T10:09:03;99552.38;;;13.48;53.37
18396;BME280;76377;45.194;5.734;2024-03-06T10:11:39;99553.59;;;13.73;51.27
18396;BME280;76377;45.194;5.734;2024-03-06T10:14:06;99554.38;;;13.24;53.26
18396;BME280;76377;45.194;5.734;2024-03-06T10:16:33;99555.94;;;13.71;51.91
18396;BME280;76377;45.194;5.734;2024-03-06T10:19:15;99546.97;;;13.55;52.08
18396;BME280;76377;45.194;5.734;2024-03-06T10:21:46;99556.47;;;13.54;53.49
18396;BME280;76377;45.194;5.734;2024-03-06T10:24:17;99546.69;;;13.90;51.95
18396;BME280;76377;45.194;5.734;2024-03-06T10:26:47;99560.91;;;13.85;50.63
18396;BME280;76377;45.194;5.734;2024-03-06T10:29:18;99554.97;;;14.13;50.96
18396;BME280;76377;45.194;5.734;2024-03-06T10:31:49;99554.59;;;14.14;51.69
18396;BME280;76377;45.194;5.734;2024-03-06T10:34:18;99545.00;;;13.82;51.30
18396;BME280;76377;45.194;5.734;2024-03-06T10:36:50;99550.59;;;13.85;50.34
18396;BME280;76377;45.194;5.734;2024-03-06T10:39:20;99550.06;;;14.03;50.31
18396;BME280;76377;45.194;5.734;2024-03-06T10:41:52;99549.41;;;13.86;51.42
18396;BME280;76377;45.194;5.734;2024-03-06T10:44:21;99547.81;;;13.13;52.87
18396;BME280;76377;45.194;5.734;2024-03-06T10:46:55;99545.56;;;13.68;50.70
18396;BME280;76377;45.194;5.734;2024-03-06T10:49:24;99545.38;;;13.80;50.55
18396;BME280;76377;45.194;5.734;2024-03-06T10:51:57;99544.19;;;13.81;51.90
18396;BME280;76377;45.194;5.734;2024-03-06T10:54:27;99532.28;;;13.32;52.51
18396;BME280;76377;45.194;5.734;2024-03-06T10:56:56;99534.34;;;13.15;53.13
18396;BME280;76377;45.194;5.734;2024-03-06T10:59:25;99540.56;;;12.67;51.90
18396;BME280;76377;45.194;5.734;2024-03-06T11:01:54;99536.94;;;12.62;50.78
18396;BME280;76377;45.194;5.734;2024-03-06T11:04:25;99542.31;;;12.17;50.96
18396;BME280;76377;45.194;5.734;2024-03-06T11:06:55;99525.81;;;12.05;52.07
18396;BME280;76377;45.194;5.734;2024-03-06T11:09:26;99527.59;;;12.13;53.13
18396;BME280;76377;45.194;5.734;2024-03-06T11:11:54;99534.00;;;12.17;52.90
18396;BME280;76377;45.194;5.734;2024-03-06T11:14:24;99519.88;;;11.87;52.64
18396;BME280;76377;45.194;5.734;2024-03-06T11:16:58;99517.41;;;11.66;53.05
18396;BME280;76377;45.194;5.734;2024-03-06T11:19:29;99516.72;;;11.53;52.56
18396;BME280;76377;45.194;5.734;2024-03-06T11:21:58;99508.03;;;11.55;52.53
18396;BME280;76377;45.194;5.734;2024-03-06T11:24:32;99520.00;;;11.59;51.80
18396;BME280;76377;45.194;5.734;2024-03-06T11:27:00;99505.88;;;11.64;52.09
18396;BME280;76377;45.194;5.734;2024-03-06T11:30:03;99504.34;;;11.66;47.92
18396;BME280;76377;45.194;5.734;2024-03-06T11:32:37;99506.78;;;11.36;48.70
18396;BME280;76377;45.194;5.734;2024-03-06T11:35:04;99506.09;;;11.08;49.28
18396;BME280;76377;45.194;5.734;2024-03-06T11:37:36;99503.94;;;11.17;49.53
18396;BME280;76377;45.194;5.734;2024-03-06T11:40:05;99499.81;;;11.43;48.29
18396;BME280;76377;45.194;5.734;2024-03-06T11:42:34;99499.28;;;11.53;47.38
18396;BME280;76377;45.194;5.734;2024-03-06T11:45:13;99501.69;;;11.38;47.94
18396;BME280;76377;45.194;5.734;2024-03-06T11:47:56;99492.69;;;11.42;47.66
18396;BME280;76377;45.194;5.734;2024-03-06T11:50:25;99498.22;;;11.42;47.88
18396;BME280;76377;45.194;5.734;2024-03-06T11:52:54;99495.00;;;11.55;48.13
18396;BME280;76377;45.194;5.734;2024-03-06T11:55:22;99483.88;;;11.71;48.99
18396;BME280;76377;45.194;5.734;2024-03-06T11:57:51;99486.16;;;12.00;48.73
18396;BME280;76377;45.194;5.734;2024-03-06T12:00:21;99479.59;;;12.09;49.45
18396;BME280;76377;45.194;5.734;2024-03-06T12:02:50;99475.22;;;12.27;49.57
18396;BME280;76377;45.194;5.734;2024-03-06T12:05:17;99472.66;;;11.99;49.01
18396;BME280;76377;45.194;5.734;2024-03-06T12:07:46;99466.53;;;12.28;49.19
18396;BME280;76377;45.194;5.734;2024-03-06T12:10:16;99467.19;;;12.22;48.69
18396;BME280;76377;45.194;5.734;2024-03-06T12:12:43;99479.88;;;12.04;48.20
18396;BME280;76377;45.194;5.734;2024-03-06T12:15:11;99473.59;;;12.26;47.71
18396;BME280;76377;45.194;5.734;2024-03-06T12:17:43;99460.00;;;12.40;46.90
18396;BME280;76377;45.194;5.734;2024-03-06T12:20:12;99455.88;;;12.73;45.84
18396;BME280;76377;45.194;5.734;2024-03-06T12:22:45;99457.22;;;12.59;46.13
18396;BME280;76377;45.194;5.734;2024-03-06T12:25:19;99466.84;;;12.66;45.88
18396;BME280;76377;45.194;5.734;2024-03-06T12:27:48;99468.56;;;12.51;46.75
18396;BME280;76377;45.194;5.734;2024-03-06T12:30:17;99466.72;;;12.39;45.80
18396;BME280;76377;45.194;5.734;2024-03-06T12:32:45;99463.19;;;12.00;46.44
18396;BME280;76377;45.194;5.734;2024-03-06T12:35:24;99456.66;;;11.92;46.32
18396;BME280;76377;45.194;5.734;2024-03-06T12:37:54;99461.91;;;11.78;45.44
18396;BME280;76377;45.194;5.734;2024-03-06T12:40:23;99464.94;;;12.08;45.79
18396;BME280;76377;45.194;5.734;2024-03-06T12:42:50;99464.41;;;12.22;45.80
18396;BME280;76377;45.194;5.734;2024-03-06T12:45:19;99465.56;;;12.40;45.45
18396;BME280;76377;45.194;5.734;2024-03-06T12:47:47;99460.81;;;12.83;44.11
18396;BME280;76377;45.194;5.734;2024-03-06T12:50:15;99455.88;;;12.73;44.02
18396;BME280;76377;45.194;5.734;2024-03-06T12:52:42;99460.81;;;12.83;43.75
18396;BME280;76377;45.194;5.734;2024-03-06T12:55:11;99455.75;;;12.66;43.27
18396;BME280;76377;45.194;5.734;2024-03-06T12:57:40;99447.59;;;12.99;43.40
18396;BME280;76377;45.194;5.734;2024-03-06T13:00:08;99449.78;;;13.09;43.83
18396;BME280;76377;45.194;5.734;2024-03-06T13:02:41;99441.28;;;13.21;42.04
18396;BME280;76377;45.194;5.734;2024-03-06T13:05:18;99438.00;;;12.93;42.35
18396;BME280;76377;45.194;5.734;2024-03-06T13:07:46;99431.84;;;12.57;42.83
18396;BME280;76377;45.194;5.734;2024-03-06T13:10:13;99423.22;;;12.62;43.08